sensor_id;sensor_type;location;lat;lon;timestamp;P1;durP1;ratioP1;P2;durP2;ratioP2
3034;SDS011;1527;48.836;9.172;2022-09-01T00:00:12;17.05;;;15.35;;
3034;SDS011;1527;48.836;9.172;2022-09-01T00:02:47;17.63;;;14.77;;
3034;SDS011;1527;48.836;9.172;2022-09-01T00:05:17;17.05;;;14.93;;
3034;SDS011;1527;48.836;9.172;2022-09-01T00:07:46;18.73;;;16.20;;
3034;SDS011;1527;48.836;9.172;2022-09-01T00:10:18;16.95;;;14.70;;
3034;SDS011;1527;48.836;9.172;2022-09-01T00:12:47;17.50;;;15.57;;
3034;SDS011;1527;48.836;9.172;2022-09-01T00:15:16;17.70;;;15.50;;
3034;SDS011;1527;48.836;9.172;2022-09-01T00:17:46;17.95;;;15.05;;
3034;SDS011;1527;48.836;9.172;2022-09-01T00:20:15;17.35;;;15.65;;
3034;SDS011;1527;48.836;9.172;2022-09-01T00:22:47;15.85;;;14.25;;
3034;SDS011;1527;48.836;9.172;2022-09-01T00:25:18;15.88;;;14.15;;
3034;SDS011;1527;48.836;9.172;2022-09-01T00:27:49;17.67;;;15.77;;
3034;SDS011;1527;48.836;9.172;2022-09-01T00:30:20;18.40;;;15.73;;
3034;SDS011;1527;48.836;9.172;2022-09-01T00:32:49;16.23;;;14.50;;
3034;SDS011;1527;48.836;9.172;2022-09-01T00:35:19;16.55;;;13.85;;
3034;SDS011;1527;48.836;9.172;2022-09-01T00:37:48;17.88;;;14.68;;
3034;SDS011;1527;48.836;9.172;2022-09-01T00:40:19;17.27;;;15.00;;
3034;SDS011;1527;48.836;9.172;2022-09-01T00:42:49;16.33;;;14.65;;
3034;SDS011;1527;48.836;9.172;2022-09-01T00:45:20;17.08;;;14.93;;
3034;SDS011;1527;48.836;9.172;2022-09-01T00:47:50;16.10;;;14.52;;
3034;SDS011;1527;48.836;9.172;2022-09-01T00:50:21;16.08;;;14.07;;
3034;SDS011;1527;48.836;9.172;2022-09-01T00:52:52;22.27;;;14.85;;
3034;SDS011;1527;48.836;9.172;2022-09-01T00:55:26;16.02;;;14.43;;
3034;SDS011;1527;48.836;9.172;2022-09-01T00:57:59;16.35;;;13.82;;
3034;SDS011;1527;48.836;9.172;2022-09-01T01:00:32;16.58;;;14.70;;
3034;SDS011;1527;48.836;9.172;2022-09-01T01:03:08;15.57;;;13.95;;
3034;SDS011;1527;48.836;9.172;2022-09-01T01:05:40;15.40;;;13.73;;
3034;SDS011;1527;48.836;9.172;2022-09-01T01:08:20;17.42;;;14.20;;
3034;SDS011;1527;48.836;9.172;2022-09-01T01:11:07;16.05;;;14.35;;
3034;SDS011;1527;48.836;9.172;2022-09-01T01:13:47;15.13;;;13.50;;
3034;SDS011;1527;48.836;9.172;2022-09-01T01:16:21;13.95;;;12.57;;
3034;SDS011;1527;48.836;9.172;2022-09-01T01:18:52;22.50;;;13.18;;
3034;SDS011;1527;48.836;9.172;2022-09-01T01:21:26;15.75;;;13.55;;
3034;SDS011;1527;48.836;9.172;2022-09-01T01:24:34;14.95;;;12.55;;
3034;SDS011;1527;48.836;9.172;2022-09-01T01:27:05;15.00;;;13.50;;
3034;SDS011;1527;48.836;9.172;2022-09-01T01:29:35;14.70;;;13.13;;
3034;SDS011;1527;48.836;9.172;2022-09-01T01:32:06;14.80;;;12.57;;
3034;SDS011;1527;48.836;9.172;2022-09-01T01:34:39;14.02;;;12.60;;
3034;SDS011;1527;48.836;9.172;2022-09-01T01:37:15;15.85;;;12.50;;
3034;SDS011;1527;48.836;9.172;2022-09-01T01:39:46;13.95;;;12.63;;
3034;SDS011;1527;48.836;9.172;2022-09-01T01:42:17;15.02;;;13.52;;
3034;SDS011;1527;48.836;9.172;2022-09-01T01:44:47;14.27;;;12.88;;
3034;SDS011;1527;48.836;9.172;2022-09-01T01:47:17;13.25;;;11.93;;
3034;SDS011;1527;48.836;9.172;2022-09-01T01:49:46;14.02;;;12.52;;
3034;SDS011;1527;48.836;9.172;2022-09-01T01:52:16;13.10;;;11.80;;
3034;SDS011;1527;48.836;9.172;2022-09-01T01:54:53;14.27;;;12.77;;
3034;SDS011;1527;48.836;9.172;2022-09-01T01:57:23;16.90;;;13.25;;
3034;SDS011;1527;48.836;9.172;2022-09-01T01:59:58;13.30;;;11.90;;
3034;SDS011;1527;48.836;9.172;2022-09-01T02:02:28;14.90;;;13.30;;
3034;SDS011;1527;48.836;9.172;2022-09-01T02:04:58;15.20;;;13.60;;
3034;SDS011;1527;48.836;9.172;2022-09-01T02:07:27;14.57;;;13.18;;
3034;SDS011;1527;48.836;9.172;2022-09-01T02:10:01;14.38;;;12.88;;
3034;SDS011;1527;48.836;9.172;2022-09-01T02:12:32;21.65;;;12.68;;
3034;SDS011;1527;48.836;9.172;2022-09-01T02:15:03;15.35;;;13.80;;
3034;SDS011;1527;48.836;9.172;2022-09-01T02:17:34;14.45;;;12.55;;
3034;SDS011;1527;48.836;9.172;2022-09-01T02:20:07;15.07;;;11.80;;
3034;SDS011;1527;48.836;9.172;2022-09-01T02:22:37;13.38;;;11.98;;
3034;SDS011;1527;48.836;9.172;2022-09-01T02:25:08;14.45;;;12.95;;
3034;SDS011;1527;48.836;9.172;2022-09-01T02:27:38;12.70;;;11.40;;
3034;SDS011;1527;48.836;9.172;2022-09-01T02:30:12;16.63;;;12.02;;
3034;SDS011;1527;48.836;9.172;2022-09-01T02:32:42;14.98;;;13.38;;
3034;SDS011;1527;48.836;9.172;2022-09-01T02:35:19;14.80;;;13.38;;
3034;SDS011;1527;48.836;9.172;2022-09-01T02:37:48;14.18;;;12.68;;
3034;SDS011;1527;48.836;9.172;2022-09-01T02:40:24;16.33;;;14.63;;
3034;SDS011;1527;48.836;9.172;2022-09-01T02:42:56;14.10;;;12.70;;
3034;SDS011;1527;48.836;9.172;2022-09-01T02:45:29;14.68;;;13.27;;
3034;SDS011;1527;48.836;9.172;2022-09-01T02:48:00;15.85;;;12.90;;
3034;SDS011;1527;48.836;9.172;2022-09-01T02:50:36;15.60;;;13.35;;
3034;SDS011;1527;48.836;9.172;2022-09-01T02:53:07;14.38;;;13.05;;
3034;SDS011;1527;48.836;9.172;2022-09-01T02:55:40;15.27;;;12.77;;
3034;SDS011;1527;48.836;9.172;2022-09-01T02:58:11;19.13;;;13.13;;
3034;SDS011;1527;48.836;9.172;2022-09-01T03:00:42;15.02;;;13.18;;
3034;SDS011;1527;48.836;9.172;2022-09-01T03:03:13;15.60;;;13.85;;
3034;SDS011;1527;48.836;9.172;2022-09-01T03:05:44;15.93;;;14.25;;
3034;SDS011;1527;48.836;9.172;2022-09-01T03:08:13;16.70;;;13.68;;
3034;SDS011;1527;48.836;9.172;2022-09-01T03:10:44;17.55;;;14.40;;
3034;SDS011;1527;48.836;9.172;2022-09-01T03:13:15;15.50;;;13.13;;
3034;SDS011;1527;48.836;9.172;2022-09-01T03:15:49;17.00;;;14.13;;
3034;SDS011;1527;48.836;9.172;2022-09-01T03:18:19;16.17;;;14.48;;
3034;SDS011;1527;48.836;9.172;2022-09-01T03:20:48;16.02;;;14.10;;
3034;SDS011;1527;48.836;9.172;2022-09-01T03:23:19;14.30;;;12.80;;
3034;SDS011;1527;48.836;9.172;2022-09-01T03:25:54;15.57;;;13.93;;
3034;SDS011;1527;48.836;9.172;2022-09-01T03:28:24;17.83;;;15.88;;
3034;SDS011;1527;48.836;9.172;2022-09-01T03:30:57;17.58;;;15.68;;
3034;SDS011;1527;48.836;9.172;2022-09-01T03:33:29;16.63;;;14.82;;
3034;SDS011;1527;48.836;9.172;2022-09-01T03:36:00;18.05;;;16.17;;
3034;SDS011;1527;48.836;9.172;2022-09-01T03:38:30;20.52;;;16.60;;
3034;SDS011;1527;48.836;9.172;2022-09-01T03:41:04;19.80;;;17.90;;
3034;SDS011;1527;48.836;9.172;2022-09-01T03:43:34;22.02;;;18.25;;
3034;SDS011;1527;48.836;9.172;2022-09-01T03:46:15;17.83;;;16.02;;
3034;SDS011;1527;48.836;9.172;2022-09-01T03:48:50;20.10;;;18.00;;
3034;SDS011;1527;48.836;9.172;2022-09-01T03:51:22;18.75;;;16.55;;
3034;SDS011;1527;48.836;9.172;2022-09-01T03:53:53;19.50;;;17.40;;
3034;SDS011;1527;48.836;9.172;2022-09-01T03:56:28;16.92;;;15.32;;
3034;SDS011;1527;48.836;9.172;2022-09-01T03:58:58;19.08;;;16.83;;
3034;SDS011;1527;48.836;9.172;2022-09-01T04:01:29;18.35;;;16.52;;
3034;SDS011;1527;48.836;9.172;2022-09-01T04:04:05;19.98;;;17.17;;
3034;SDS011;1527;48.836;9.172;2022-09-01T04:06:43;17.40;;;15.70;;
3034;SDS011;1527;48.836;9.172;2022-09-01T04:09:14;18.10;;;15.63;;
3034;SDS011;1527;48.836;9.172;2022-09-01T04:11:45;18.02;;;16.00;;
3034;SDS011;1527;48.836;9.172;2022-09-01T04:14:19;16.48;;;14.88;;
3034;SDS011;1527;48.836;9.172;2022-09-01T04:16:49;18.17;;;16.25;;
3034;SDS011;1527;48.836;9.172;2022-09-01T04:19:37;17.50;;;15.68;;
3034;SDS011;1527;48.836;9.172;2022-09-01T04:22:10;18.05;;;16.15;;
3034;SDS011;1527;48.836;9.172;2022-09-01T04:24:42;16.92;;;15.25;;
3034;SDS011;1527;48.836;9.172;2022-09-01T04:27:14;18.00;;;16.05;;
3034;SDS011;1527;48.836;9.172;2022-09-01T04:29:48;20.15;;;16.10;;
3034;SDS011;1527;48.836;9.172;2022-09-01T04:32:24;17.95;;;16.02;;
3034;SDS011;1527;48.836;9.172;2022-09-01T04:34:57;17.92;;;16.08;;
3034;SDS011;1527;48.836;9.172;2022-09-01T04:37:28;17.13;;;15.32;;
3034;SDS011;1527;48.836;9.172;2022-09-01T04:40:02;18.13;;;15.40;;
3034;SDS011;1527;48.836;9.172;2022-09-01T04:42:34;17.88;;;15.98;;
3034;SDS011;1527;48.836;9.172;2022-09-01T04:45:04;19.92;;;17.65;;
3034;SDS011;1527;48.836;9.172;2022-09-01T04:47:41;20.80;;;16.25;;
3034;SDS011;1527;48.836;9.172;2022-09-01T04:50:15;18.55;;;15.77;;
3034;SDS011;1527;48.836;9.172;2022-09-01T04:53:07;22.27;;;17.48;;
3034;SDS011;1527;48.836;9.172;2022-09-01T04:55:41;19.08;;;16.90;;
3034;SDS011;1527;48.836;9.172;2022-09-01T04:58:14;18.17;;;16.25;;
3034;SDS011;1527;48.836;9.172;2022-09-01T05:00:46;20.30;;;17.50;;
3034;SDS011;1527;48.836;9.172;2022-09-01T05:03:20;18.75;;;16.90;;
3034;SDS011;1527;48.836;9.172;2022-09-01T05:05:54;19.98;;;17.90;;
3034;SDS011;1527;48.836;9.172;2022-09-01T05:08:24;19.55;;;16.05;;
3034;SDS011;1527;48.836;9.172;2022-09-01T05:11:01;22.35;;;17.67;;
3034;SDS011;1527;48.836;9.172;2022-09-01T05:13:41;19.83;;;17.00;;
3034;SDS011;1527;48.836;9.172;2022-09-01T05:16:12;18.48;;;16.48;;
3034;SDS011;1527;48.836;9.172;2022-09-01T05:18:53;18.27;;;16.17;;
3034;SDS011;1527;48.836;9.172;2022-09-01T05:21:26;18.52;;;16.42;;
3034;SDS011;1527;48.836;9.172;2022-09-01T05:23:57;17.65;;;15.75;;
3034;SDS011;1527;48.836;9.172;2022-09-01T05:26:31;18.25;;;15.55;;
3034;SDS011;1527;48.836;9.172;2022-09-01T05:29:03;20.30;;;17.13;;
3034;SDS011;1527;48.836;9.172;2022-09-01T05:31:47;17.00;;;14.45;;
3034;SDS011;1527;48.836;9.172;2022-09-01T05:34:21;21.58;;;17.63;;
3034;SDS011;1527;48.836;9.172;2022-09-01T05:36:56;18.38;;;15.35;;
3034;SDS011;1527;48.836;9.172;2022-09-01T05:39:27;20.10;;;15.80;;
3034;SDS011;1527;48.836;9.172;2022-09-01T05:41:57;21.63;;;15.30;;
3034;SDS011;1527;48.836;9.172;2022-09-01T05:44:29;16.83;;;15.13;;
3034;SDS011;1527;48.836;9.172;2022-09-01T05:46:59;17.33;;;15.00;;
3034;SDS011;1527;48.836;9.172;2022-09-01T05:49:30;18.27;;;15.10;;
3034;SDS011;1527;48.836;9.172;2022-09-01T05:52:03;18.05;;;15.30;;
3034;SDS011;1527;48.836;9.172;2022-09-01T05:54:38;17.58;;;15.10;;
3034;SDS011;1527;48.836;9.172;2022-09-01T05:57:07;19.40;;;14.90;;
3034;SDS011;1527;48.836;9.172;2022-09-01T05:59:58;20.23;;;15.18;;
3034;SDS011;1527;48.836;9.172;2022-09-01T06:02:39;19.13;;;15.65;;
3034;SDS011;1527;48.836;9.172;2022-09-01T06:05:18;17.70;;;15.75;;
3034;SDS011;1527;48.836;9.172;2022-09-01T06:07:50;16.20;;;14.70;;
3034;SDS011;1527;48.836;9.172;2022-09-01T06:10:24;16.73;;;14.38;;
3034;SDS011;1527;48.836;9.172;2022-09-01T06:12:56;17.67;;;15.77;;
3034;SDS011;1527;48.836;9.172;2022-09-01T06:15:31;17.52;;;15.57;;
3034;SDS011;1527;48.836;9.172;2022-09-01T06:18:03;21.23;;;16.40;;
3034;SDS011;1527;48.836;9.172;2022-09-01T06:20:41;17.48;;;15.80;;
3034;SDS011;1527;48.836;9.172;2022-09-01T06:23:15;16.60;;;14.82;;
3034;SDS011;1527;48.836;9.172;2022-09-01T06:25:46;22.10;;;16.92;;
3034;SDS011;1527;48.836;9.172;2022-09-01T06:28:21;20.75;;;16.48;;
3034;SDS011;1527;48.836;9.172;2022-09-01T06:30:52;18.27;;;15.90;;
3034;SDS011;1527;48.836;9.172;2022-09-01T06:33:24;19.10;;;16.05;;
3034;SDS011;1527;48.836;9.172;2022-09-01T06:35:54;18.08;;;16.17;;
3034;SDS011;1527;48.836;9.172;2022-09-01T06:38:24;20.02;;;16.48;;
3034;SDS011;1527;48.836;9.172;2022-09-01T06:40:58;18.88;;;15.85;;
3034;SDS011;1527;48.836;9.172;2022-09-01T06:43:30;20.35;;;17.42;;
3034;SDS011;1527;48.836;9.172;2022-09-01T06:46:03;19.10;;;16.63;;
3034;SDS011;1527;48.836;9.172;2022-09-01T06:48:34;19.55;;;16.05;;
3034;SDS011;1527;48.836;9.172;2022-09-01T06:51:08;22.42;;;17.38;;
3034;SDS011;1527;48.836;9.172;2022-09-01T06:53:45;19.77;;;16.95;;
3034;SDS011;1527;48.836;9.172;2022-09-01T06:56:17;20.90;;;17.35;;
3034;SDS011;1527;48.836;9.172;2022-09-01T06:58:50;19.20;;;15.98;;
3034;SDS011;1527;48.836;9.172;2022-09-01T07:01:23;21.25;;;18.20;;
3034;SDS011;1527;48.836;9.172;2022-09-01T07:03:56;21.50;;;18.52;;
3034;SDS011;1527;48.836;9.172;2022-09-01T07:06:33;20.77;;;18.50;;
3034;SDS011;1527;48.836;9.172;2022-09-01T07:09:47;24.45;;;19.35;;
3034;SDS011;1527;48.836;9.172;2022-09-01T07:12:39;19.02;;;17.02;;
3034;SDS011;1527;48.836;9.172;2022-09-01T07:15:36;21.65;;;17.67;;
3034;SDS011;1527;48.836;9.172;2022-09-01T07:18:31;18.90;;;16.85;;
3034;SDS011;1527;48.836;9.172;2022-09-01T07:21:04;23.30;;;17.35;;
3034;SDS011;1527;48.836;9.172;2022-09-01T07:23:55;18.58;;;16.58;;
3034;SDS011;1527;48.836;9.172;2022-09-01T07:26:40;23.80;;;18.77;;
3034;SDS011;1527;48.836;9.172;2022-09-01T07:29:14;20.50;;;18.30;;
3034;SDS011;1527;48.836;9.172;2022-09-01T07:31:49;19.05;;;17.05;;
3034;SDS011;1527;48.836;9.172;2022-09-01T07:34:43;18.63;;;15.70;;
3034;SDS011;1527;48.836;9.172;2022-09-01T07:37:16;17.77;;;15.68;;
3034;SDS011;1527;48.836;9.172;2022-09-01T07:40:11;17.63;;;15.68;;
3034;SDS011;1527;48.836;9.172;2022-09-01T07:43:25;22.40;;;15.90;;
3034;SDS011;1527;48.836;9.172;2022-09-01T07:46:38;16.77;;;14.98;;
3034;SDS011;1527;48.836;9.172;2022-09-01T07:49:13;17.77;;;15.07;;
3034;SDS011;1527;48.836;9.172;2022-09-01T07:52:06;19.23;;;15.45;;
3034;SDS011;1527;48.836;9.172;2022-09-01T07:54:37;21.25;;;14.50;;
3034;SDS011;1527;48.836;9.172;2022-09-01T07:57:06;15.68;;;13.75;;
3034;SDS011;1527;48.836;9.172;2022-09-01T07:59:36;19.33;;;16.20;;
3034;SDS011;1527;48.836;9.172;2022-09-01T08:02:19;17.15;;;13.90;;
3034;SDS011;1527;48.836;9.172;2022-09-01T08:04:49;16.42;;;14.43;;
3034;SDS011;1527;48.836;9.172;2022-09-01T08:07:20;14.48;;;12.65;;
3034;SDS011;1527;48.836;9.172;2022-09-01T08:09:50;16.25;;;13.23;;
3034;SDS011;1527;48.836;9.172;2022-09-01T08:12:23;13.32;;;11.93;;
3034;SDS011;1527;48.836;9.172;2022-09-01T08:14:55;13.50;;;12.07;;
3034;SDS011;1527;48.836;9.172;2022-09-01T08:17:45;21.73;;;14.70;;
3034;SDS011;1527;48.836;9.172;2022-09-01T08:20:20;13.80;;;12.23;;
3034;SDS011;1527;48.836;9.172;2022-09-01T08:22:53;14.90;;;12.38;;
3034;SDS011;1527;48.836;9.172;2022-09-01T08:25:30;12.98;;;11.63;;
3034;SDS011;1527;48.836;9.172;2022-09-01T08:28:04;19.05;;;14.75;;
3034;SDS011;1527;48.836;9.172;2022-09-01T08:30:34;12.88;;;11.55;;
3034;SDS011;1527;48.836;9.172;2022-09-01T08:33:07;12.60;;;10.32;;
3034;SDS011;1527;48.836;9.172;2022-09-01T08:35:43;16.05;;;14.27;;
3034;SDS011;1527;48.836;9.172;2022-09-01T08:38:15;11.85;;;10.60;;
3034;SDS011;1527;48.836;9.172;2022-09-01T08:40:49;12.80;;;10.57;;
3034;SDS011;1527;48.836;9.172;2022-09-01T08:43:40;11.27;;;10.25;;
3034;SDS011;1527;48.836;9.172;2022-09-01T08:46:21;11.60;;;8.95;;
3034;SDS011;1527;48.836;9.172;2022-09-01T08:48:55;11.52;;;9.98;;
3034;SDS011;1527;48.836;9.172;2022-09-01T08:52:16;8.32;;;7.60;;
3034;SDS011;1527;48.836;9.172;2022-09-01T08:54:59;14.15;;;11.77;;
3034;SDS011;1527;48.836;9.172;2022-09-01T08:57:32;11.52;;;8.95;;
3034;SDS011;1527;48.836;9.172;2022-09-01T09:00:20;8.07;;;7.28;;
3034;SDS011;1527;48.836;9.172;2022-09-01T09:03:06;8.60;;;7.80;;
3034;SDS011;1527;48.836;9.172;2022-09-01T09:05:52;8.73;;;7.93;;
3034;SDS011;1527;48.836;9.172;2022-09-01T09:11:44;7.13;;;6.53;;
3034;SDS011;1527;48.836;9.172;2022-09-01T09:14:55;8.43;;;6.50;;
3034;SDS011;1527;48.836;9.172;2022-09-01T09:17:43;6.47;;;5.78;;
3034;SDS011;1527;48.836;9.172;2022-09-01T09:20:26;6.38;;;5.80;;
3034;SDS011;1527;48.836;9.172;2022-09-01T09:22:57;7.05;;;6.35;;
3034;SDS011;1527;48.836;9.172;2022-09-01T09:25:31;6.63;;;5.97;;
3034;SDS011;1527;48.836;9.172;2022-09-01T09:28:09;8.10;;;6.10;;
3034;SDS011;1527;48.836;9.172;2022-09-01T09:30:41;7.80;;;7.07;;
3034;SDS011;1527;48.836;9.172;2022-09-01T09:33:31;8.55;;;7.60;;
3034;SDS011;1527;48.836;9.172;2022-09-01T09:36:20;6.95;;;6.35;;
3034;SDS011;1527;48.836;9.172;2022-09-01T09:39:03;7.75;;;7.03;;
3034;SDS011;1527;48.836;9.172;2022-09-01T09:41:38;7.20;;;6.60;;
3034;SDS011;1527;48.836;9.172;2022-09-01T09:44:18;8.32;;;7.57;;
3034;SDS011;1527;48.836;9.172;2022-09-01T09:46:53;7.53;;;6.75;;
3034;SDS011;1527;48.836;9.172;2022-09-01T09:49:24;8.05;;;7.15;;
3034;SDS011;1527;48.836;9.172;2022-09-01T09:52:14;7.72;;;7.00;;
3034;SDS011;1527;48.836;9.172;2022-09-01T09:54:59;8.75;;;7.47;;
3034;SDS011;1527;48.836;9.172;2022-09-01T09:57:32;12.40;;;7.40;;
3034;SDS011;1527;48.836;9.172;2022-09-01T10:00:15;7.63;;;6.68;;
3034;SDS011;1527;48.836;9.172;2022-09-01T10:02:53;9.27;;;7.93;;
3034;SDS011;1527;48.836;9.172;2022-09-01T10:05:36;7.60;;;6.80;;
3034;SDS011;1527;48.836;9.172;2022-09-01T10:08:10;7.30;;;6.57;;
3034;SDS011;1527;48.836;9.172;2022-09-01T10:10:48;7.25;;;6.65;;
3034;SDS011;1527;48.836;9.172;2022-09-01T10:13:27;7.88;;;6.85;;
3034;SDS011;1527;48.836;9.172;2022-09-01T10:16:01;7.97;;;7.20;;
3034;SDS011;1527;48.836;9.172;2022-09-01T10:18:38;8.40;;;7.65;;
3034;SDS011;1527;48.836;9.172;2022-09-01T10:21:14;7.13;;;6.43;;
3034;SDS011;1527;48.836;9.172;2022-09-01T10:23:50;9.60;;;7.13;;
3034;SDS011;1527;48.836;9.172;2022-09-01T10:26:21;7.32;;;6.60;;
3034;SDS011;1527;48.836;9.172;2022-09-01T10:28:56;9.40;;;6.85;;
3034;SDS011;1527;48.836;9.172;2022-09-01T10:31:30;6.63;;;6.03;;
3034;SDS011;1527;48.836;9.172;2022-09-01T10:34:01;7.93;;;7.22;;
3034;SDS011;1527;48.836;9.172;2022-09-01T10:36:33;7.07;;;6.38;;
3034;SDS011;1527;48.836;9.172;2022-09-01T10:39:06;6.25;;;5.68;;
3034;SDS011;1527;48.836;9.172;2022-09-01T10:41:47;6.95;;;6.35;;
3034;SDS011;1527;48.836;9.172;2022-09-01T10:44:27;7.03;;;5.63;;
3034;SDS011;1527;48.836;9.172;2022-09-01T10:47:07;6.30;;;5.80;;
3034;SDS011;1527;48.836;9.172;2022-09-01T10:52:53;6.03;;;5.43;;
3034;SDS011;1527;48.836;9.172;2022-09-01T10:55:33;6.03;;;5.53;;
3034;SDS011;1527;48.836;9.172;2022-09-01T10:58:15;5.80;;;5.30;;
3034;SDS011;1527;48.836;9.172;2022-09-01T11:05:14;8.30;;;5.87;;
3034;SDS011;1527;48.836;9.172;2022-09-01T11:07:46;7.13;;;5.50;;
3034;SDS011;1527;48.836;9.172;2022-09-01T11:10:32;5.87;;;5.27;;
3034;SDS011;1527;48.836;9.172;2022-09-01T11:13:23;6.25;;;5.25;;
3034;SDS011;1527;48.836;9.172;2022-09-01T11:19:23;5.60;;;5.10;;
3034;SDS011;1527;48.836;9.172;2022-09-01T11:22:06;6.00;;;5.50;;
3034;SDS011;1527;48.836;9.172;2022-09-01T11:24:49;5.93;;;5.10;;
3034;SDS011;1527;48.836;9.172;2022-09-01T11:30:33;5.30;;;4.80;;
3034;SDS011;1527;48.836;9.172;2022-09-01T11:33:23;5.27;;;4.83;;
3034;SDS011;1527;48.836;9.172;2022-09-01T11:36:13;6.97;;;4.60;;
3034;SDS011;1527;48.836;9.172;2022-09-01T11:38:53;4.53;;;4.20;;
3034;SDS011;1527;48.836;9.172;2022-09-01T11:41:28;7.37;;;5.00;;
3034;SDS011;1527;48.836;9.172;2022-09-01T11:44:10;4.57;;;4.17;;
3034;SDS011;1527;48.836;9.172;2022-09-01T11:46:51;4.43;;;4.13;;
3034;SDS011;1527;48.836;9.172;2022-09-01T11:49:28;4.20;;;3.80;;
3034;SDS011;1527;48.836;9.172;2022-09-01T11:52:03;5.37;;;4.97;;
3034;SDS011;1527;48.836;9.172;2022-09-01T11:54:38;5.20;;;4.80;;
3034;SDS011;1527;48.836;9.172;2022-09-01T11:57:20;5.60;;;5.10;;
3034;SDS011;1527;48.836;9.172;2022-09-01T11:59:56;4.80;;;4.30;;
3034;SDS011;1527;48.836;9.172;2022-09-01T12:02:29;5.23;;;4.80;;
3034;SDS011;1527;48.836;9.172;2022-09-01T12:05:08;4.73;;;4.40;;
3034;SDS011;1527;48.836;9.172;2022-09-01T12:07:57;5.07;;;4.57;;
3034;SDS011;1527;48.836;9.172;2022-09-01T12:10:29;4.70;;;4.40;;
3034;SDS011;1527;48.836;9.172;2022-09-01T12:13:04;5.63;;;5.00;;
3034;SDS011;1527;48.836;9.172;2022-09-01T12:15:37;5.70;;;4.93;;
3034;SDS011;1527;48.836;9.172;2022-09-01T12:18:29;6.80;;;4.83;;
3034;SDS011;1527;48.836;9.172;2022-09-01T12:21:03;4.40;;;4.10;;
3034;SDS011;1527;48.836;9.172;2022-09-01T12:23:37;4.90;;;4.50;;
3034;SDS011;1527;48.836;9.172;2022-09-01T12:26:12;4.47;;;4.07;;
3034;SDS011;1527;48.836;9.172;2022-09-01T12:28:43;5.13;;;4.73;;
3034;SDS011;1527;48.836;9.172;2022-09-01T12:31:17;5.00;;;4.50;;
3034;SDS011;1527;48.836;9.172;2022-09-01T12:33:50;4.63;;;4.30;;
3034;SDS011;1527;48.836;9.172;2022-09-01T12:36:24;4.30;;;3.90;;
3034;SDS011;1527;48.836;9.172;2022-09-01T12:41:59;4.80;;;4.40;;
3034;SDS011;1527;48.836;9.172;2022-09-01T12:44:33;4.30;;;3.90;;
3034;SDS011;1527;48.836;9.172;2022-09-01T12:47:20;5.00;;;4.60;;
3034;SDS011;1527;48.836;9.172;2022-09-01T12:56:19;5.43;;;4.93;;
3034;SDS011;1527;48.836;9.172;2022-09-01T12:59:05;4.90;;;4.50;;
3034;SDS011;1527;48.836;9.172;2022-09-01T13:01:44;4.80;;;4.40;;
3034;SDS011;1527;48.836;9.172;2022-09-01T13:04:23;4.63;;;3.60;;
3034;SDS011;1527;48.836;9.172;2022-09-01T13:07:00;4.83;;;4.53;;
3034;SDS011;1527;48.836;9.172;2022-09-01T13:09:32;4.70;;;4.30;;
3034;SDS011;1527;48.836;9.172;2022-09-01T13:12:16;9.47;;;5.50;;
3034;SDS011;1527;48.836;9.172;2022-09-01T13:14:48;5.00;;;4.60;;
3034;SDS011;1527;48.836;9.172;2022-09-01T13:17:22;5.10;;;4.60;;
3034;SDS011;1527;48.836;9.172;2022-09-01T13:19:51;4.83;;;4.43;;
3034;SDS011;1527;48.836;9.172;2022-09-01T13:22:21;4.67;;;4.30;;
3034;SDS011;1527;48.836;9.172;2022-09-01T13:24:53;4.80;;;4.40;;
3034;SDS011;1527;48.836;9.172;2022-09-01T13:27:27;4.37;;;4.07;;
3034;SDS011;1527;48.836;9.172;2022-09-01T13:29:57;5.20;;;4.80;;
3034;SDS011;1527;48.836;9.172;2022-09-01T13:32:27;5.20;;;4.77;;
3034;SDS011;1527;48.836;9.172;2022-09-01T13:34:56;4.73;;;3.93;;
3034;SDS011;1527;48.836;9.172;2022-09-01T13:37:27;5.43;;;4.33;;
3034;SDS011;1527;48.836;9.172;2022-09-01T13:39:57;5.77;;;5.00;;
3034;SDS011;1527;48.836;9.172;2022-09-01T13:42:29;6.97;;;4.90;;
3034;SDS011;1527;48.836;9.172;2022-09-01T13:44:59;4.30;;;4.00;;
3034;SDS011;1527;48.836;9.172;2022-09-01T13:47:32;4.70;;;4.13;;
3034;SDS011;1527;48.836;9.172;2022-09-01T13:50:22;3.97;;;3.67;;
3034;SDS011;1527;48.836;9.172;2022-09-01T13:53:11;4.37;;;4.07;;
3034;SDS011;1527;48.836;9.172;2022-09-01T13:55:41;4.93;;;3.70;;
3034;SDS011;1527;48.836;9.172;2022-09-01T13:58:13;5.00;;;4.67;;
3034;SDS011;1527;48.836;9.172;2022-09-01T14:00:44;4.93;;;4.50;;
3034;SDS011;1527;48.836;9.172;2022-09-01T14:03:21;4.93;;;4.53;;
3034;SDS011;1527;48.836;9.172;2022-09-01T14:05:51;4.90;;;4.50;;
3034;SDS011;1527;48.836;9.172;2022-09-01T14:08:21;4.23;;;3.93;;
3034;SDS011;1527;48.836;9.172;2022-09-01T14:10:52;6.10;;;4.70;;
3034;SDS011;1527;48.836;9.172;2022-09-01T14:13:24;10.67;;;5.00;;
3034;SDS011;1527;48.836;9.172;2022-09-01T14:15:57;4.70;;;4.40;;
3034;SDS011;1527;48.836;9.172;2022-09-01T14:18:27;5.20;;;4.80;;
3034;SDS011;1527;48.836;9.172;2022-09-01T14:20:59;5.13;;;4.37;;
3034;SDS011;1527;48.836;9.172;2022-09-01T14:23:28;4.60;;;4.20;;
3034;SDS011;1527;48.836;9.172;2022-09-01T14:26:00;4.63;;;4.33;;
3034;SDS011;1527;48.836;9.172;2022-09-01T14:28:31;8.57;;;4.77;;
3034;SDS011;1527;48.836;9.172;2022-09-01T14:31:01;5.70;;;4.33;;
3034;SDS011;1527;48.836;9.172;2022-09-01T14:33:38;4.90;;;4.50;;
3034;SDS011;1527;48.836;9.172;2022-09-01T14:36:15;4.73;;;4.27;;
3034;SDS011;1527;48.836;9.172;2022-09-01T14:38:47;4.70;;;4.30;;
3034;SDS011;1527;48.836;9.172;2022-09-01T14:41:20;4.63;;;4.23;;
3034;SDS011;1527;48.836;9.172;2022-09-01T14:43:54;4.80;;;4.40;;
3034;SDS011;1527;48.836;9.172;2022-09-01T14:46:30;4.80;;;4.40;;
3034;SDS011;1527;48.836;9.172;2022-09-01T14:49:01;4.97;;;4.57;;
3034;SDS011;1527;48.836;9.172;2022-09-01T14:51:31;5.20;;;4.80;;
3034;SDS011;1527;48.836;9.172;2022-09-01T14:54:22;4.90;;;4.50;;
3034;SDS011;1527;48.836;9.172;2022-09-01T14:56:52;4.60;;;4.20;;
3034;SDS011;1527;48.836;9.172;2022-09-01T14:59:42;4.40;;;4.10;;
3034;SDS011;1527;48.836;9.172;2022-09-01T15:02:12;20.13;;;4.90;;
3034;SDS011;1527;48.836;9.172;2022-09-01T15:04:41;4.77;;;4.40;;
3034;SDS011;1527;48.836;9.172;2022-09-01T15:07:11;5.50;;;5.00;;
3034;SDS011;1527;48.836;9.172;2022-09-01T15:09:41;4.67;;;4.27;;
3034;SDS011;1527;48.836;9.172;2022-09-01T15:12:10;4.40;;;4.00;;
3034;SDS011;1527;48.836;9.172;2022-09-01T15:14:40;4.43;;;4.13;;
3034;SDS011;1527;48.836;9.172;2022-09-01T15:17:11;4.70;;;4.17;;
3034;SDS011;1527;48.836;9.172;2022-09-01T15:19:41;4.37;;;3.97;;
3034;SDS011;1527;48.836;9.172;2022-09-01T15:22:11;5.47;;;4.97;;
3034;SDS011;1527;48.836;9.172;2022-09-01T15:24:41;5.27;;;4.37;;
3034;SDS011;1527;48.836;9.172;2022-09-01T15:27:12;6.10;;;5.60;;
3034;SDS011;1527;48.836;9.172;2022-09-01T15:29:42;3.60;;;3.40;;
3034;SDS011;1527;48.836;9.172;2022-09-01T15:32:15;4.30;;;4.00;;
3034;SDS011;1527;48.836;9.172;2022-09-01T15:34:54;4.47;;;4.17;;
3034;SDS011;1527;48.836;9.172;2022-09-01T15:37:24;4.27;;;3.97;;
3034;SDS011;1527;48.836;9.172;2022-09-01T15:39:54;4.37;;;4.07;;
3034;SDS011;1527;48.836;9.172;2022-09-01T15:42:23;5.50;;;4.30;;
3034;SDS011;1527;48.836;9.172;2022-09-01T15:44:53;3.93;;;3.63;;
3034;SDS011;1527;48.836;9.172;2022-09-01T15:47:23;4.20;;;3.90;;
3034;SDS011;1527;48.836;9.172;2022-09-01T15:49:53;4.30;;;4.00;;
3034;SDS011;1527;48.836;9.172;2022-09-01T15:52:25;4.40;;;4.07;;
3034;SDS011;1527;48.836;9.172;2022-09-01T15:54:56;4.50;;;3.63;;
3034;SDS011;1527;48.836;9.172;2022-09-01T15:57:26;3.87;;;3.57;;
3034;SDS011;1527;48.836;9.172;2022-09-01T15:59:55;5.00;;;4.17;;
3034;SDS011;1527;48.836;9.172;2022-09-01T16:02:26;4.13;;;3.80;;
3034;SDS011;1527;48.836;9.172;2022-09-01T16:04:56;4.80;;;4.47;;
3034;SDS011;1527;48.836;9.172;2022-09-01T16:07:25;3.97;;;3.63;;
3034;SDS011;1527;48.836;9.172;2022-09-01T16:09:55;4.30;;;4.00;;
3034;SDS011;1527;48.836;9.172;2022-09-01T16:12:26;3.78;;;3.47;;
3034;SDS011;1527;48.836;9.172;2022-09-01T16:14:57;4.27;;;3.97;;